Time;durP1;ratioP1;P1;durP2;ratioP2;P2;SDS_P1;SDS_P2;PMS_P1;PMS_P2;Temp;Humidity;BMP_temperature;BMP_pressure;BME280_temperature;BME280_humidity;BME280_pressure;Samples;Min_cycle;Max_cycle;Signal;HPM_P1;HPM_P2
2023/09/03 00:02:23;;;;;;;1999.90;999.90;;;;;;;;;;5027473;28;20577;-84
2023/09/03 00:04:49;;;;;;;1999.90;999.90;;;;;;;;;;5021847;28;20042;-85
2023/09/03 00:07:16;;;;;;;1999.90;999.90;;;;;;;;;;5019341;28;20046;-85
2023/09/03 00:09:44;;;;;;;1999.90;999.90;;;;;;;;;;5018718;28;20100;-86
2023/09/03 00:12:11;;;;;;;1999.90;999.90;;;;;;;;;;5017895;28;20092;-86
2023/09/03 00:14:37;;;;;;;1999.90;999.90;;;;;;;;;;5023044;28;20049;-85
2023/09/03 00:17:05;;;;;;;1999.90;999.90;;;;;;;;;;5022982;28;20133;-85
2023/09/03 00:19:31;;;;;;;1999.90;999.90;;;;;;;;;;5026194;28;20045;-85
2023/09/03 00:21:58;;;;;;;1999.90;999.90;;;;;;;;;;5025398;28;20491;-85
2023/09/03 00:24:24;;;;;;;1999.90;999.90;;;;;;;;;;5018037;28;20046;-84
2023/09/03 00:26:52;;;;;;;1999.90;999.90;;;;;;;;;;5021816;28;20049;-87
2023/09/03 00:29:19;;;;;;;1999.90;999.90;;;;;;;;;;5021807;28;20054;-86
2023/09/03 00:31:45;;;;;;;1999.90;999.90;;;;;;;;;;5023134;28;20053;-86
2023/09/03 00:34:12;;;;;;;1999.90;999.90;;;;;;;;;;5012455;28;20058;-85
2023/09/03 00:36:40;;;;;;;1999.90;999.90;;;;;;;;;;5026248;28;20415;-86
2023/09/03 00:39:06;;;;;;;1999.90;999.90;;;;;;;;;;5019465;28;20200;-85
2023/09/03 00:41:33;;;;;;;1999.90;999.90;;;;;;;;;;5025174;28;20046;-86
2023/09/03 00:44:02;;;;;;;1999.90;999.90;;;;;;;;;;5019834;28;20056;-86
2023/09/03 00:46:29;;;;;;;1999.90;999.90;;;;;;;;;;5021550;28;20046;-84
2023/09/03 00:48:56;;;;;;;1999.90;999.90;;;;;;;;;;5019981;28;20050;-86
2023/09/03 00:51:22;;;;;;;1999.90;999.90;;;;;;;;;;5017360;28;20052;-85
2023/09/03 00:53:52;;;;;;;1999.90;999.90;;;;;;;;;;5015072;28;20064;-85
2023/09/03 00:56:19;;;;;;;1999.90;999.90;;;;;;;;;;5022909;28;20054;-86
2023/09/03 00:58:46;;;;;;;1999.90;999.90;;;;;;;;;;5016538;28;20037;-85
2023/09/03 01:01:14;;;;;;;1999.90;999.90;;;;;;;;;;5017470;28;20050;-86
2023/09/03 01:03:42;;;;;;;1999.90;999.90;;;;;;;;;;5061937;22;20146;-81
2023/09/03 01:06:09;;;;;;;1999.90;999.90;;;;;;;;;;5048629;28;20053;-82
2023/09/03 01:08:36;;;;;;;1999.90;999.90;;;;;;;;;;5048639;28;20043;-83
2023/09/03 01:11:07;;;;;;;1999.90;999.90;;;;;;;;;;5052800;28;20071;-82
2023/09/03 01:13:40;;;;;;;1999.90;999.90;;;;;;;;;;5051152;28;20495;-82
2023/09/03 01:16:09;;;;;;;1999.90;999.90;;;;;;;;;;5050843;28;20055;-83
2023/09/03 01:18:38;;;;;;;1999.90;999.90;;;;;;;;;;5052394;28;20045;-82
2023/09/03 01:21:33;;;;;;;1999.90;999.90;;;;;;;;;;5052153;28;20131;-83
2023/09/03 01:24:07;;;;;;;1999.90;999.90;;;;;;;;;;5046171;28;20052;-82
2023/09/03 01:26:42;;;;;;;1999.90;999.90;;;;;;;;;;5054088;28;20048;-82
2023/09/03 01:29:10;;;;;;;1999.90;999.90;;;;;;;;;;5052910;28;20053;-82
2023/09/03 01:31:37;;;;;;;1999.90;999.90;;;;;;;;;;5051328;28;20049;-81
2023/09/03 01:34:05;;;;;;;1999.90;999.90;;;;;;;;;;5037004;28;20041;-81
2023/09/03 01:36:32;;;;;;;1999.90;999.90;;;;;;;;;;5052955;28;20140;-83
2023/09/03 01:38:59;;;;;;;1999.90;999.90;;;;;;;;;;5051365;28;20045;-83
2023/09/03 01:41:25;;;;;;;1999.90;999.90;;;;;;;;;;5055040;28;20045;-82
2023/09/03 01:43:52;;;;;;;1999.90;999.90;;;;;;;;;;5053386;28;20497;-81
2023/09/03 01:46:24;;;;;;;1999.90;999.90;;;;;;;;;;5052187;28;20111;-82
2023/09/03 01:49:00;;;;;;;1999.90;999.90;;;;;;;;;;5050263;28;20040;-80
2023/09/03 01:51:37;;;;;;;1999.90;999.90;;;;;;;;;;5050168;28;20051;-81
2023/09/03 01:54:08;;;;;;;1999.90;999.90;;;;;;;;;;5049813;28;20045;-82
2023/09/03 01:56:42;;;;;;;1999.90;999.90;;;;;;;;;;5044029;28;20394;-82
2023/09/03 01:59:14;;;;;;;1999.90;999.90;;;;;;;;;;5038538;28;20404;-82
2023/09/03 02:01:42;;;;;;;1999.90;999.90;;;;;;;;;;5050627;28;20059;-81
2023/09/03 02:04:08;;;;;;;1999.90;999.90;;;;;;;;;;5032557;28;20049;-81
2023/09/03 02:06:35;;;;;;;1999.90;999.90;;;;;;;;;;5030087;28;20052;-81
2023/09/03 02:09:01;;;;;;;1999.90;999.90;;;;;;;;;;5039078;28;20494;-80
2023/09/03 02:11:28;;;;;;;1999.90;999.90;;;;;;;;;;5042857;28;20056;-81
2023/09/03 02:13:54;;;;;;;1999.90;999.90;;;;;;;;;;5041005;28;20041;-81
2023/09/03 02:16:21;;;;;;;1999.90;999.90;;;;;;;;;;5033647;28;20053;-81
2023/09/03 02:18:48;;;;;;;1999.90;999.90;;;;;;;;;;5036313;28;20055;-80
2023/09/03 02:21:15;;;;;;;1999.90;999.90;;;;;;;;;;5035729;28;20049;-81
2023/09/03 02:23:41;;;;;;;1999.90;999.90;;;;;;;;;;5038326;28;20052;-81
2023/09/03 02:26:08;;;;;;;1999.90;999.90;;;;;;;;;;5033597;28;20115;-81
2023/09/03 02:28:37;;;;;;;1999.90;999.90;;;;;;;;;;5033719;28;20049;-81
2023/09/03 02:31:03;;;;;;;1999.90;999.90;;;;;;;;;;5038282;28;20053;-81
2023/09/03 02:33:30;;;;;;;1999.90;999.90;;;;;;;;;;5031545;28;20490;-81
2023/09/03 02:35:58;;;;;;;1999.90;999.90;;;;;;;;;;5033685;28;20127;-81
2023/09/03 02:38:24;;;;;;;1999.90;999.90;;;;;;;;;;5033810;28;20755;-81
2023/09/03 02:40:51;;;;;;;1999.90;999.90;;;;;;;;;;5033799;28;20049;-81
2023/09/03 02:43:17;;;;;;;1999.90;999.90;;;;;;;;;;5034228;28;20048;-81
2023/09/03 02:45:44;;;;;;;1999.90;999.90;;;;;;;;;;5039433;28;20045;-82
2023/09/03 02:48:11;;;;;;;1999.90;999.90;;;;;;;;;;5038109;28;20051;-81
2023/09/03 02:50:38;;;;;;;1999.90;999.90;;;;;;;;;;5038038;28;20114;-81
2023/09/03 02:53:07;;;;;;;1999.90;999.90;;;;;;;;;;5037691;28;20075;-81
2023/09/03 02:55:33;;;;;;;1999.90;999.90;;;;;;;;;;5035630;28;20053;-83
2023/09/03 02:58:00;;;;;;;1999.90;999.90;;;;;;;;;;5039661;28;20042;-81
2023/09/03 03:00:26;;;;;;;1999.90;999.90;;;;;;;;;;5035832;28;20421;-81
2023/09/03 03:02:53;;;;;;;1999.90;999.90;;;;;;;;;;5046991;28;20052;-81
2023/09/03 03:05:18;;;;;;;1999.90;999.90;;;;;;;;;;5053792;28;20045;-81
2023/09/03 03:07:45;;;;;;;1999.90;999.90;;;;;;;;;;5052881;28;20051;-82
2023/09/03 03:10:13;;;;;;;1999.90;999.90;;;;;;;;;;5050362;28;20501;-82
2023/09/03 03:12:43;;;;;;;1999.90;999.90;;;;;;;;;;5055650;28;20049;-81
2023/09/03 03:15:10;;;;;;;1999.90;999.90;;;;;;;;;;5054596;28;20490;-81
2023/09/03 03:17:37;;;;;;;1999.90;999.90;;;;;;;;;;5047898;28;20045;-80
2023/09/03 03:20:04;;;;;;;1999.90;999.90;;;;;;;;;;5054411;28;20588;-82
2023/09/03 03:22:30;;;;;;;1999.90;999.90;;;;;;;;;;5053182;28;20140;-81
2023/09/03 03:24:57;;;;;;;1999.90;999.90;;;;;;;;;;5043109;28;20386;-82
2023/09/03 03:27:25;;;;;;;1999.90;999.90;;;;;;;;;;5051374;28;20053;-80
2023/09/03 03:29:52;;;;;;;1999.90;999.90;;;;;;;;;;5041889;28;20045;-81
2023/09/03 03:32:19;;;;;;;1999.90;999.90;;;;;;;;;;5045518;28;20049;-80
2023/09/03 03:34:46;;;;;;;1999.90;999.90;;;;;;;;;;5048849;28;20066;-80
2023/09/03 03:37:12;;;;;;;1999.90;999.90;;;;;;;;;;5053224;28;20041;-81
2023/09/03 03:39:39;;;;;;;1999.90;999.90;;;;;;;;;;5053212;28;20485;-81
2023/09/03 03:42:05;;;;;;;1999.90;999.90;;;;;;;;;;5046465;28;20041;-81
2023/09/03 03:44:34;;;;;;;1999.90;999.90;;;;;;;;;;5046900;28;20141;-81
2023/09/03 03:47:00;;;;;;;1999.90;999.90;;;;;;;;;;5050166;28;20054;-81
2023/09/03 03:49:27;;;;;;;1999.90;999.90;;;;;;;;;;5050680;28;20041;-81
2023/09/03 03:51:53;;;;;;;1999.90;999.90;;;;;;;;;;5041330;28;20072;-82
2023/09/03 03:54:20;;;;;;;1999.90;999.90;;;;;;;;;;5044251;28;20490;-82
2023/09/03 03:56:46;;;;;;;1999.90;999.90;;;;;;;;;;5047379;28;20041;-81
2023/09/03 03:59:13;;;;;;;1999.90;999.90;;;;;;;;;;5054656;28;20053;-81
2023/09/03 04:01:41;;;;;;;1999.90;999.90;;;;;;;;;;5059255;28;20556;-82
2023/09/03 04:04:07;;;;;;;1999.90;999.90;;;;;;;;;;5052802;28;20071;-81
2023/09/03 04:06:34;;;;;;;1999.90;999.90;;;;;;;;;;5046483;28;20559;-81
2023/09/03 04:09:00;;;;;;;1999.90;999.90;;;;;;;;;;5044502;28;20059;-82
2023/09/03 04:11:27;;;;;;;1999.90;999.90;;;;;;;;;;5052722;28;20049;-81
2023/09/03 04:13:53;;;;;;;1999.90;999.90;;;;;;;;;;5050890;28;20049;-82
2023/09/03 04:16:22;;;;;;;1999.90;999.90;;;;;;;;;;5051490;28;20075;-81
2023/09/03 04:18:49;;;;;;;1999.90;999.90;;;;;;;;;;5056911;28;20144;-81
2023/09/03 04:21:16;;;;;;;1999.90;999.90;;;;;;;;;;5053497;28;20049;-82
2023/09/03 04:23:43;;;;;;;1999.90;999.90;;;;;;;;;;5053275;28;20493;-81
2023/09/03 04:26:10;;;;;;;1999.90;999.90;;;;;;;;;;5051322;28;20621;-82
2023/09/03 04:28:36;;;;;;;1999.90;999.90;;;;;;;;;;5051409;28;20049;-82
2023/09/03 04:31:04;;;;;;;1999.90;999.90;;;;;;;;;;5050641;28;20421;-81
2023/09/03 04:33:31;;;;;;;1999.90;999.90;;;;;;;;;;5053575;28;20052;-81
2023/09/03 04:36:01;;;;;;;1999.90;999.90;;;;;;;;;;5053627;28;20049;-82
2023/09/03 04:38:27;;;;;;;1999.90;999.90;;;;;;;;;;5053770;28;20041;-82
2023/09/03 04:40:54;;;;;;;1999.90;999.90;;;;;;;;;;5051630;28;20041;-82
2023/09/03 04:43:21;;;;;;;1999.90;999.90;;;;;;;;;;5055728;28;20037;-82
2023/09/03 04:45:47;;;;;;;1999.90;999.90;;;;;;;;;;5052015;28;20401;-81
2023/09/03 04:48:14;;;;;;;1999.90;999.90;;;;;;;;;;5051205;28;20489;-81
2023/09/03 04:50:41;;;;;;;1999.90;999.90;;;;;;;;;;5054774;28;20099;-82
2023/09/03 04:53:09;;;;;;;1999.90;999.90;;;;;;;;;;5051938;28;20927;-82
2023/09/03 04:55:35;;;;;;;1999.90;999.90;;;;;;;;;;5052684;28;20080;-82
2023/09/03 04:58:03;;;;;;;1999.90;999.90;;;;;;;;;;5051250;28;20171;-82
2023/09/03 05:00:30;;;;;;;1999.90;999.90;;;;;;;;;;5056666;28;20049;-82
2023/09/03 05:02:57;;;;;;;1999.90;999.90;;;;;;;;;;5053589;28;20053;-81
2023/09/03 05:05:23;;;;;;;1999.90;999.90;;;;;;;;;;5051278;28;20083;-83
2023/09/03 05:07:51;;;;;;;1999.90;999.90;;;;;;;;;;5051650;28;20048;-82
2023/09/03 05:10:19;;;;;;;1999.90;999.90;;;;;;;;;;5051362;28;20098;-81
2023/09/03 05:12:46;;;;;;;1999.90;999.90;;;;;;;;;;5050415;28;20045;-82
2023/09/03 05:15:13;;;;;;;1999.90;999.90;;;;;;;;;;5049769;28;20049;-81
2023/09/03 05:17:39;;;;;;;1999.90;999.90;;;;;;;;;;5051721;28;20053;-82
2023/09/03 05:20:08;;;;;;;1999.90;999.90;;;;;;;;;;5051960;28;20048;-83
2023/09/03 05:22:35;;;;;;;1999.90;999.90;;;;;;;;;;5050192;28;20045;-82
2023/09/03 05:25:02;;;;;;;1999.90;999.90;;;;;;;;;;5047498;28;20050;-81
2023/09/03 05:27:30;;;;;;;1999.90;999.90;;;;;;;;;;5052434;28;20194;-82
2023/09/03 05:29:57;;;;;;;1999.90;999.90;;;;;;;;;;5048364;28;20045;-82
2023/09/03 05:32:23;;;;;;;1999.90;999.90;;;;;;;;;;5049097;28;20079;-81
2023/09/03 05:34:50;;;;;;;1999.90;999.90;;;;;;;;;;5051113;28;20052;-82
2023/09/03 05:37:16;;;;;;;1999.90;999.90;;;;;;;;;;5051995;28;20415;-84
2023/09/03 05:39:43;;;;;;;1999.90;999.90;;;;;;;;;;5051362;28;20045;-82
2023/09/03 05:42:09;;;;;;;1999.90;999.90;;;;;;;;;;5058685;28;20049;-82
2023/09/03 05:44:37;;;;;;;1999.90;999.90;;;;;;;;;;5054890;28;20041;-81
2023/09/03 05:47:05;;;;;;;1999.90;999.90;;;;;;;;;;5056440;28;20055;-82
2023/09/03 05:49:31;;;;;;;1999.90;999.90;;;;;;;;;;5054955;28;20053;-83
2023/09/03 05:51:58;;;;;;;1999.90;999.90;;;;;;;;;;5057631;28;20564;-82
2023/09/03 05:54:24;;;;;;;1999.90;999.90;;;;;;;;;;5052202;28;20501;-82
2023/09/03 05:56:51;;;;;;;1999.90;999.90;;;;;;;;;;5053377;28;20056;-80
2023/09/03 05:59:17;;;;;;;1999.90;999.90;;;;;;;;;;5055770;28;20047;-81
2023/09/03 06:01:46;;;;;;;1999.90;999.90;;;;;;;;;;5055102;28;20053;-82
2023/09/03 06:04:15;;;;;;;1999.90;999.90;;;;;;;;;;5054971;28;20044;-81
2023/09/03 06:06:41;;;;;;;1999.90;999.90;;;;;;;;;;5054910;28;20521;-81
2023/09/03 06:09:08;;;;;;;1999.90;999.90;;;;;;;;;;5056168;28;20049;-81
2023/09/03 06:11:35;;;;;;;1999.90;999.90;;;;;;;;;;5055097;28;20045;-82
2023/09/03 06:14:02;;;;;;;1999.90;999.90;;;;;;;;;;5052139;28;20057;-82
2023/09/03 06:16:28;;;;;;;1999.90;999.90;;;;;;;;;;5051296;28;20049;-81
2023/09/03 06:18:56;;;;;;;1999.90;999.90;;;;;;;;;;5054746;28;20041;-81
2023/09/03 06:21:24;;;;;;;1999.90;999.90;;;;;;;;;;5052334;28;20055;-83
2023/09/03 06:23:51;;;;;;;1999.90;999.90;;;;;;;;;;5056040;28;20049;-82
2023/09/03 06:26:17;;;;;;;1999.90;999.90;;;;;;;;;;5052372;28;20049;-83
2023/09/03 06:28:44;;;;;;;1999.90;999.90;;;;;;;;;;5052997;28;20074;-81
2023/09/03 06:31:10;;;;;;;1999.90;999.90;;;;;;;;;;5054304;28;20049;-82
2023/09/03 06:33:37;;;;;;;1999.90;999.90;;;;;;;;;;5052185;28;20048;-81
2023/09/03 06:36:05;;;;;;;1999.90;999.90;;;;;;;;;;5054687;28;20060;-81
2023/09/03 06:38:32;;;;;;;1999.90;999.90;;;;;;;;;;5055053;28;20067;-81
2023/09/03 06:40:58;;;;;;;1999.90;999.90;;;;;;;;;;5054190;28;20040;-82
2023/09/03 06:43:25;;;;;;;1999.90;999.90;;;;;;;;;;5055495;28;20148;-82
2023/09/03 06:45:51;;;;;;;1999.90;999.90;;;;;;;;;;5053229;28;20075;-82
2023/09/03 06:48:18;;;;;;;1999.90;999.90;;;;;;;;;;5054148;28;20045;-82
2023/09/03 06:50:44;;;;;;;1999.90;999.90;;;;;;;;;;5051480;28;20808;-82
2023/09/03 06:53:12;;;;;;;1999.90;999.90;;;;;;;;;;5054586;28;20048;-82
2023/09/03 06:55:38;;;;;;;1999.90;999.90;;;;;;;;;;5051013;28;20774;-81
2023/09/03 06:58:05;;;;;;;1999.90;999.90;;;;;;;;;;5054702;28;20063;-83
2023/09/03 07:00:34;;;;;;;1999.90;999.90;;;;;;;;;;5053634;28;20041;-81
2023/09/03 07:03:00;;;;;;;1999.90;999.90;;;;;;;;;;5054904;28;20076;-82
2023/09/03 07:05:27;;;;;;;1999.90;999.90;;;;;;;;;;5054785;28;20049;-82
2023/09/03 07:07:53;;;;;;;1999.90;999.90;;;;;;;;;;5052389;28;20049;-82
2023/09/03 07:10:21;;;;;;;1999.90;999.90;;;;;;;;;;5054041;28;20365;-82
2023/09/03 07:12:48;;;;;;;1999.90;999.90;;;;;;;;;;5053735;28;20504;-82
2023/09/03 07:15:14;;;;;;;1999.90;999.90;;;;;;;;;;5053122;28;20045;-82
2023/09/03 07:17:41;;;;;;;1999.90;999.90;;;;;;;;;;5051464;28;20478;-81
2023/09/03 07:20:09;;;;;;;1999.90;999.90;;;;;;;;;;5051044;28;20136;-83
2023/09/03 07:22:35;;;;;;;1999.90;999.90;;;;;;;;;;5052929;28;20056;-82
2023/09/03 07:25:02;;;;;;;1999.90;999.90;;;;;;;;;;5055777;28;20079;-83
2023/09/03 07:27:31;;;;;;;1999.90;999.90;;;;;;;;;;5052990;28;20052;-83
2023/09/03 07:29:58;;;;;;;1999.90;999.90;;;;;;;;;;5053867;28;20052;-83
2023/09/03 07:32:24;;;;;;;1999.90;999.90;;;;;;;;;;5046885;28;20490;-83
2023/09/03 07:34:51;;;;;;;1999.90;999.90;;;;;;;;;;5042833;28;20053;-83
2023/09/03 07:37:17;;;;;;;1999.90;999.90;;;;;;;;;;5046890;28;20049;-84
2023/09/03 07:39:44;;;;;;;1999.90;999.90;;;;;;;;;;5053934;28;20052;-83
2023/09/03 07:42:10;;;;;;;1999.90;999.90;;;;;;;;;;5046843;28;20406;-83
2023/09/03 07:44:39;;;;;;;1999.90;999.90;;;;;;;;;;5048858;28;20051;-85
2023/09/03 07:47:06;;;;;;;1999.90;999.90;;;;;;;;;;5054822;28;20120;-82
2023/09/03 07:49:32;;;;;;;1999.90;999.90;;;;;;;;;;5056773;28;20049;-82
2023/09/03 07:51:59;;;;;;;1999.90;999.90;;;;;;;;;;5054637;28;20060;-84
2023/09/03 07:54:25;;;;;;;1999.90;999.90;;;;;;;;;;5051893;28;20516;-83
2023/09/03 07:56:54;;;;;;;1999.90;999.90;;;;;;;;;;5047281;28;20059;-82
2023/09/03 07:59:20;;;;;;;1999.90;999.90;;;;;;;;;;5048946;28;20084;-84
2023/09/03 08:01:48;;;;;;;1999.90;999.90;;;;;;;;;;5045851;28;20064;-82
2023/09/03 08:04:15;;;;;;;1999.90;999.90;;;;;;;;;;5053663;28;20476;-84
2023/09/03 08:06:41;;;;;;;1999.90;999.90;;;;;;;;;;5052620;28;20055;-82
2023/09/03 08:09:08;;;;;;;1999.90;999.90;;;;;;;;;;5058416;28;20051;-82
2023/09/03 08:11:36;;;;;;;1999.90;999.90;;;;;;;;;;5055629;28;20052;-82
2023/09/03 08:14:03;;;;;;;1999.90;999.90;;;;;;;;;;5056418;28;20413;-82
2023/09/03 08:16:29;;;;;;;1999.90;999.90;;;;;;;;;;5049359;28;20516;-80
2023/09/03 08:18:57;;;;;;;1999.90;999.90;;;;;;;;;;5046008;28;20059;-83
2023/09/03 08:21:24;;;;;;;1999.90;999.90;;;;;;;;;;5050046;28;20401;-79
2023/09/03 08:23:50;;;;;;;1999.90;999.90;;;;;;;;;;5051243;28;20056;-80
2023/09/03 08:26:17;;;;;;;1999.90;999.90;;;;;;;;;;5048007;28;20412;-80
2023/09/03 08:28:43;;;;;;;1999.90;999.90;;;;;;;;;;5056518;28;20433;-80
2023/09/03 08:31:10;;;;;;;1999.90;999.90;;;;;;;;;;5056747;28;20044;-79
2023/09/03 08:33:37;;;;;;;1999.90;999.90;;;;;;;;;;5044772;28;20473;-79
2023/09/03 08:36:05;;;;;;;1999.90;999.90;;;;;;;;;;5037626;28;20049;-78
2023/09/03 08:38:32;;;;;;;1999.90;999.90;;;;;;;;;;5046712;28;20044;-78
2023/09/03 08:40:58;;;;;;;1999.90;999.90;;;;;;;;;;5047472;28;20051;-79
2023/09/03 08:43:25;;;;;;;1999.90;999.90;;;;;;;;;;5045335;28;20045;-78
2023/09/03 08:45:56;;;;;;;1999.90;999.90;;;;;;;;;;5054210;28;20489;-79
2023/09/03 08:48:23;;;;;;;1999.90;999.90;;;;;;;;;;5059139;28;20661;-79
2023/09/03 08:50:55;;;;;;;1999.90;999.90;;;;;;;;;;5046294;28;20048;-78
2023/09/03 08:53:23;;;;;;;1999.90;999.90;;;;;;;;;;5046718;28;20405;-79
2023/09/03 08:55:49;;;;;;;1999.90;999.90;;;;;;;;;;5046288;28;20051;-79
2023/09/03 08:58:16;;;;;;;1999.90;999.90;;;;;;;;;;5047725;28;20053;-79
2023/09/03 09:00:43;;;;;;;1999.90;999.90;;;;;;;;;;5051684;28;20059;-79
2023/09/03 09:03:11;;;;;;;1999.90;999.90;;;;;;;;;;5052232;28;20052;-78
2023/09/03 09:05:41;;;;;;;1999.90;999.90;;;;;;;;;;5045215;28;20045;-82
2023/09/03 09:08:08;;;;;;;1999.90;999.90;;;;;;;;;;5052445;28;20045;-79
2023/09/03 09:10:40;;;;;;;1999.90;999.90;;;;;;;;;;5052397;28;20049;-78
2023/09/03 09:13:08;;;;;;;1999.90;999.90;;;;;;;;;;5058937;28;20441;-78
2023/09/03 09:15:35;;;;;;;1999.90;999.90;;;;;;;;;;5051892;28;20049;-78
2023/09/03 09:18:02;;;;;;;1999.90;999.90;;;;;;;;;;5052664;28;20055;-78
2023/09/03 09:20:31;;;;;;;1999.90;999.90;;;;;;;;;;5051835;28;20044;-81
2023/09/03 09:22:58;;;;;;;1999.90;999.90;;;;;;;;;;5052198;28;20401;-78
2023/09/03 09:25:26;;;;;;;1999.90;999.90;;;;;;;;;;5052282;28;20052;-79
2023/09/03 09:27:54;;;;;;;1999.90;999.90;;;;;;;;;;5050980;28;20505;-79
2023/09/03 09:30:24;;;;;;;1999.90;999.90;;;;;;;;;;5052600;28;20049;-78
2023/09/03 09:33:03;;;;;;;1999.90;999.90;;;;;;;;;;5053438;28;20045;-78
2023/09/03 09:35:29;;;;;;;1999.90;999.90;;;;;;;;;;5055312;28;20045;-78
2023/09/03 09:38:03;;;;;;;1999.90;999.90;;;;;;;;;;5056281;28;20417;-78
2023/09/03 09:40:30;;;;;;;1999.90;999.90;;;;;;;;;;5032821;28;20050;-78
2023/09/03 09:43:00;;;;;;;1999.90;999.90;;;;;;;;;;5050719;28;20606;-78
2023/09/03 09:45:27;;;;;;;1999.90;999.90;;;;;;;;;;5053033;28;20056;-78
2023/09/03 09:48:04;;;;;;;1999.90;999.90;;;;;;;;;;5052489;28;20131;-78
2023/09/03 09:50:34;;;;;;;1999.90;999.90;;;;;;;;;;5052674;28;20056;-79
2023/09/03 09:53:01;;;;;;;1999.90;999.90;;;;;;;;;;5052560;28;20489;-78
2023/09/03 09:55:29;;;;;;;1999.90;999.90;;;;;;;;;;5053065;28;20409;-82
2023/09/03 09:57:57;;;;;;;1999.90;999.90;;;;;;;;;;5059337;28;20060;-79
2023/09/03 10:00:34;;;;;;;1999.90;999.90;;;;;;;;;;5050375;28;20420;-79
2023/09/03 10:03:00;;;;;;;1999.90;999.90;;;;;;;;;;5034921;28;20057;-78
2023/09/03 10:05:27;;;;;;;1999.90;999.90;;;;;;;;;;5060386;28;20052;-78
2023/09/03 10:07:53;;;;;;;1999.90;999.90;;;;;;;;;;5032919;28;20042;-83
2023/09/03 10:10:20;;;;;;;1999.90;999.90;;;;;;;;;;5051468;28;20056;-77
2023/09/03 10:12:47;;;;;;;1999.90;999.90;;;;;;;;;;5049264;28;20523;-77
2023/09/03 10:15:15;;;;;;;1999.90;999.90;;;;;;;;;;5053303;28;20442;-81
2023/09/03 10:17:43;;;;;;;1999.90;999.90;;;;;;;;;;5045867;28;20519;-79
2023/09/03 10:20:12;;;;;;;1999.90;999.90;;;;;;;;;;5050864;28;20041;-78
2023/09/03 10:22:41;;;;;;;1999.90;999.90;;;;;;;;;;5053979;28;20051;-78
2023/09/03 10:25:10;;;;;;;1999.90;999.90;;;;;;;;;;5053588;28;20053;-80
2023/09/03 10:27:39;;;;;;;1999.90;999.90;;;;;;;;;;5060504;28;20045;-76
2023/09/03 10:30:09;;;;;;;1999.90;999.90;;;;;;;;;;5055635;28;20107;-81
2023/09/03 10:32:37;;;;;;;1999.90;999.90;;;;;;;;;;5055089;28;20595;-77
2023/09/03 10:35:08;;;;;;;1999.90;999.90;;;;;;;;;;5059499;28;20055;-79
2023/09/03 10:37:37;;;;;;;1999.90;999.90;;;;;;;;;;5055251;28;20087;-77
2023/09/03 10:40:18;;;;;;;1999.90;999.90;;;;;;;;;;5058181;28;20044;-77
2023/09/03 10:42:44;;;;;;;1999.90;999.90;;;;;;;;;;5054686;28;20074;-78
2023/09/03 10:45:13;;;;;;;1999.90;999.90;;;;;;;;;;5056386;28;20490;-87
2023/09/03 10:48:03;;;;;;;1999.90;999.90;;;;;;;;;;5058673;28;20041;-76
2023/09/03 10:51:00;;;;;;;1999.90;999.90;;;;;;;;;;5057813;28;20044;-77
2023/09/03 10:53:37;;;;;;;1999.90;999.90;;;;;;;;;;5054853;28;20477;-78
2023/09/03 10:56:12;;;;;;;1999.90;999.90;;;;;;;;;;5048081;28;20041;-84
2023/09/03 10:58:59;;;;;;;1999.90;999.90;;;;;;;;;;5057240;28;20057;-78
2023/09/03 11:01:30;;;;;;;1999.90;999.90;;;;;;;;;;5047987;28;20084;-78
2023/09/03 11:03:59;;;;;;;1999.90;999.90;;;;;;;;;;5054398;28;20075;-78
2023/09/03 11:06:26;;;;;;;1999.90;999.90;;;;;;;;;;5055194;28;20045;-78
2023/09/03 11:09:24;;;;;;;1999.90;999.90;;;;;;;;;;5057411;28;20047;-79
2023/09/03 11:11:51;;;;;;;1999.90;999.90;;;;;;;;;;5054524;28;20409;-80
2023/09/03 11:14:17;;;;;;;1999.90;999.90;;;;;;;;;;5057085;28;20052;-78
2023/09/03 11:16:44;;;;;;;1999.90;999.90;;;;;;;;;;5056656;28;20408;-79
2023/09/03 11:19:12;;;;;;;1999.90;999.90;;;;;;;;;;5052997;28;20059;-78
2023/09/03 11:21:38;;;;;;;1999.90;999.90;;;;;;;;;;5053469;28;20060;-76
2023/09/03 11:24:08;;;;;;;1999.90;999.90;;;;;;;;;;5049520;28;20410;-82
2023/09/03 11:26:37;;;;;;;1999.90;999.90;;;;;;;;;;5055395;28;20409;-83
2023/09/03 11:29:04;;;;;;;1999.90;999.90;;;;;;;;;;5060089;28;20539;-78
2023/09/03 11:31:30;;;;;;;1999.90;999.90;;;;;;;;;;5056841;28;20053;-79
2023/09/03 11:33:57;;;;;;;1999.90;999.90;;;;;;;;;;5060314;28;20079;-79
2023/09/03 11:36:25;;;;;;;1999.90;999.90;;;;;;;;;;5055139;28;20059;-77
2023/09/03 11:38:51;;;;;;;1999.90;999.90;;;;;;;;;;5051249;28;20059;-78
2023/09/03 11:41:19;;;;;;;1999.90;999.90;;;;;;;;;;5054726;28;20060;-77
2023/09/03 11:43:46;;;;;;;1999.90;999.90;;;;;;;;;;5054472;28;20052;-81
2023/09/03 11:46:14;;;;;;;1999.90;999.90;;;;;;;;;;5054101;28;20069;-77
2023/09/03 11:48:40;;;;;;;1999.90;999.90;;;;;;;;;;5060477;28;20040;-79
2023/09/03 11:51:08;;;;;;;1999.90;999.90;;;;;;;;;;5059307;28;20041;-78
2023/09/03 11:53:47;;;;;;;1999.90;999.90;;;;;;;;;;5057202;28;20496;-76
2023/09/03 11:56:15;;;;;;;1999.90;999.90;;;;;;;;;;5060303;28;20041;-78
2023/09/03 11:58:42;;;;;;;1999.90;999.90;;;;;;;;;;5059319;28;20055;-78
2023/09/03 12:01:09;;;;;;;1999.90;999.90;;;;;;;;;;5053046;28;20481;-78
2023/09/03 12:03:38;;;;;;;1999.90;999.90;;;;;;;;;;5060156;28;20135;-78
2023/09/03 12:06:04;;;;;;;1999.90;999.90;;;;;;;;;;5056367;28;20044;-78
2023/09/03 12:08:32;;;;;;;1999.90;999.90;;;;;;;;;;5055162;28;20128;-78
2023/09/03 12:11:00;;;;;;;1999.90;999.90;;;;;;;;;;5052791;28;20055;-78
2023/09/03 12:13:34;;;;;;;1999.90;999.90;;;;;;;;;;5057902;28;20430;-78
2023/09/03 12:16:06;;;;;;;1999.90;999.90;;;;;;;;;;5068039;28;20045;-79
2023/09/03 12:18:32;;;;;;;1999.90;999.90;;;;;;;;;;5053848;28;20044;-79
2023/09/03 12:20:59;;;;;;;1999.90;999.90;;;;;;;;;;5051251;28;20051;-76
2023/09/03 12:23:26;;;;;;;1999.90;999.90;;;;;;;;;;5052344;28;20049;-77
2023/09/03 12:25:53;;;;;;;1999.90;999.90;;;;;;;;;;5052969;28;20056;-77
2023/09/03 12:28:32;;;;;;;1999.90;999.90;;;;;;;;;;5053245;28;20128;-76
2023/09/03 12:31:00;;;;;;;1999.90;999.90;;;;;;;;;;5052314;28;20056;-77
2023/09/03 12:33:27;;;;;;;1999.90;999.90;;;;;;;;;;5057814;28;20482;-77
2023/09/03 12:36:04;;;;;;;1999.90;999.90;;;;;;;;;;5053038;28;20045;-77
2023/09/03 12:38:31;;;;;;;1999.90;999.90;;;;;;;;;;5060547;28;20040;-76
2023/09/03 12:40:57;;;;;;;1999.90;999.90;;;;;;;;;;5052521;28;20438;-78
2023/09/03 12:43:42;;;;;;;1999.90;999.90;;;;;;;;;;5049611;28;20045;-77
2023/09/03 12:46:09;;;;;;;1999.90;999.90;;;;;;;;;;5059431;28;20049;-77
2023/09/03 12:48:35;;;;;;;1999.90;999.90;;;;;;;;;;5055002;28;20045;-80
2023/09/03 12:51:09;;;;;;;1999.90;999.90;;;;;;;;;;5052228;28;20049;-77
2023/09/03 12:53:36;;;;;;;1999.90;999.90;;;;;;;;;;5054811;28;20052;-80
2023/09/03 12:56:02;;;;;;;1999.90;999.90;;;;;;;;;;5059289;28;20044;-78
2023/09/03 12:58:29;;;;;;;1999.90;999.90;;;;;;;;;;5053437;28;20061;-79
2023/09/03 13:00:57;;;;;;;1999.90;999.90;;;;;;;;;;5055136;28;20048;-78
2023/09/03 13:03:23;;;;;;;1999.90;999.90;;;;;;;;;;5051864;28;20049;-78
2023/09/03 13:05:50;;;;;;;1999.90;999.90;;;;;;;;;;5052770;28;20072;-76
2023/09/03 13:08:17;;;;;;;1999.90;999.90;;;;;;;;;;5064179;28;20549;-78
2023/09/03 13:10:43;;;;;;;1999.90;999.90;;;;;;;;;;5063546;28;20041;-80
2023/09/03 13:13:11;;;;;;;1999.90;999.90;;;;;;;;;;5061634;28;20045;-77
2023/09/03 13:15:38;;;;;;;1999.90;999.90;;;;;;;;;;5052530;28;20076;-80
2023/09/03 13:18:06;;;;;;;1999.90;999.90;;;;;;;;;;5052305;28;20132;-78
2023/09/03 13:20:42;;;;;;;1999.90;999.90;;;;;;;;;;5054157;28;20045;-77
2023/09/03 13:23:09;;;;;;;1999.90;999.90;;;;;;;;;;5055104;28;20056;-76
2023/09/03 13:25:37;;;;;;;1999.90;999.90;;;;;;;;;;5057378;28;20489;-78
2023/09/03 13:28:05;;;;;;;1999.90;999.90;;;;;;;;;;5057215;28;20132;-77
2023/09/03 13:30:31;;;;;;;1999.90;999.90;;;;;;;;;;5052671;28;20051;-76
2023/09/03 13:32:58;;;;;;;1999.90;999.90;;;;;;;;;;5063265;28;20048;-77
2023/09/03 13:35:27;;;;;;;1999.90;999.90;;;;;;;;;;5052190;28;20049;-76
2023/09/03 13:37:54;;;;;;;1999.90;999.90;;;;;;;;;;5055338;28;20053;-77
2023/09/03 13:40:20;;;;;;;1999.90;999.90;;;;;;;;;;5052200;28;20053;-77
2023/09/03 13:42:47;;;;;;;1999.90;999.90;;;;;;;;;;5052305;28;20132;-78
2023/09/03 13:45:13;;;;;;;1999.90;999.90;;;;;;;;;;5056324;28;20041;-77
2023/09/03 13:47:40;;;;;;;1999.90;999.90;;;;;;;;;;5069713;28;20052;-77